Aranda — OIRY — position and weather

sailwx.info

Track history (hours):
 
Tides and Currents Weather Stations Pressure Air Temp Water Temp Dewpoint Dewpoint Depression Visibility Wind Speed Wind Dir Waves Ship Positions

Oceanographic research ship Aranda (Finland)

Detailed information on ship capabilities available from University of Delaware's Ocean Information Center and ARCUS's ALIAS (Arctic Logistics Information and Support) project.

Last reported at 2017-May-27 14:24 UTC. Time now 2017-May-27 17:37 UTC.
Position N 59°53' E 024°56'.

Length 60 m; draft 4.7 m.

Type: Other ship. MMSI: 230145000.

Date/timePositionNaut miles runAvg speedWind from/ knotsBaromVisibWave heightAir tempDewpointWater temp
2017-May-27 14:24N 59°53' E 024°56'28 4.1
2017-May-27 07:38N 59°42' E 024°05'1 6.8
2017-May-27 07:28N 59°42' E 024°03'  
2017-May-23 03:50N 59°57' E 024°26'412.3
2017-May-23 03:30N 59°56' E 024°18'611.6
2017-May-23 03:00N 59°52' E 024°10'612.4
2017-May-23 02:30N 59°47' E 024°03'612.7
2017-May-23 02:00N 59°44' E 023°51'612.5
2017-May-23 01:30N 59°42' E 023°40'612.6
2017-May-23 01:00N 59°39' E 023°29'612.7
2017-May-23 00:30N 59°35' E 023°18'612.8
2017-May-23 00:00N 59°33' E 023°07'613.0
2017-May-22 23:30N 59°30' E 022°56'261 9.0
2017-May-21 18:20N 55°55' E 018°18'5512.7
2017-May-21 13:59N 55°33' E 016°48'1112.6
2017-May-21 13:07N 55°27' E 016°31'212.5
2017-May-21 12:58N 55°26' E 016°29'1812.5
2017-May-21 11:33N 55°16' E 016°03'112.5
2017-May-21 11:28N 55°16' E 016°01'1 1.0
2017-May-21 10:02N 55°15' E 015°59'0 0.2
2017-May-21 09:49N 55°15' E 015°59'411.0
2017-May-21 09:25N 55°16' E 015°52'612.8
2017-May-21 08:55N 55°19' E 015°41'1312.3
2017-May-21 07:52N 55°23' E 015°20'0 0.1
2017-May-21 07:30N 55°23' E 015°20'0 0.0
2017-May-21 07:00N 55°23' E 015°20'4 8.3
2017-May-21 06:30N 55°23' E 015°13'712.6
2017-May-21 05:59N 55°23' E 015°01'612.7
2017-May-21 05:30N 55°23' E 014°50'712.6
2017-May-21 04:58N 55°22' E 014°39'612.3
2017-May-21 04:30N 55°18' E 014°32'612.6
2017-May-21 04:00N 55°13' E 014°24'612.3
2017-May-21 03:29N 55°11' E 014°13'612.6
2017-May-21 02:59N 55°11' E 014°03'612.9
2017-May-21 02:30N 55°11' E 013°52'612.6
2017-May-21 02:00N 55°11' E 013°41'712.6
2017-May-21 01:28N 55°11' E 013°29'712.7
2017-May-21 00:57N 55°12' E 013°17'612.5
2017-May-21 00:30N 55°13' E 013°08'612.5
2017-May-21 00:00N 55°14' E 012°57'612.4
2017-May-20 23:29N 55°16' E 012°46'510.7
2017-May-20 23:00N 55°19' E 012°39'510.3
2017-May-20 22:30N 55°24' E 012°40'5 9.4
2017-May-20 22:00N 55°28' E 012°41'510.5
2017-May-20 21:30N 55°33' E 012°42'510.1
2017-May-20 21:00N 55°38' E 012°42'612.5
2017-May-20 20:30N 55°45' E 012°41'612.4
2017-May-20 20:00N 55°51' E 012°41'713.1
2017-May-20 19:30N 55°57' E 012°38'612.8
2017-May-20 19:00N 56°04' E 012°38'713.6
2017-May-20 18:31N 56°08' E 012°29'6410.3
2017-May-20 12:15N 57°10' E 011°54'313.3
2017-May-20 12:00N 57°13' E 011°53'713.3
2017-May-20 11:30N 57°19' E 011°46'713.1
2017-May-20 11:00N 57°24' E 011°39'613.2
2017-May-20 10:31N 57°30' E 011°32'712.8
2017-May-20 10:00N 57°35' E 011°25'612.1
2017-May-20 09:30N 57°41' E 011°23'612.0
2017-May-20 09:00N 57°47' E 011°22'611.5
2017-May-20 08:30N 57°53' E 011°20'611.3
2017-May-20 08:00N 57°58' E 011°19'611.3
2017-May-20 07:30N 58°04' E 011°18'611.1
2017-May-20 07:00N 58°09' E 011°20'8 7.0
2017-May-20 05:52N 58°16' E 011°28'0 0.0
2017-May-20 05:25N 58°16' E 011°28'0 0.0
2017-May-20 04:39N 58°16' E 011°28'0 0.0
2017-May-20 04:26N 58°16' E 011°28'0 0.0
2017-May-20 02:12N 58°16' E 011°28'1 0.9
2017-May-20 00:42N 58°16' E 011°25'212.2
2017-May-20 00:30N 58°16' E 011°21'612.3
2017-May-20 00:00N 58°18' E 011°10'5 3.7
2017-May-19 22:42N 58°20' E 011°02'0 1.6
2017-May-19 22:29N 58°20' E 011°01'3 3.6
2017-May-19 21:45N 58°19' E 010°56'2 4.9
2017-May-19 21:19N 58°18' E 010°53'1 1.8
2017-May-19 20:41N 58°18' E 010°51'0 0.0
2017-May-19 20:30N 58°18' E 010°51'2 3.5
2017-May-19 19:51N 58°17' E 010°47'2 5.3
2017-May-19 19:30N 58°16' E 010°43'1 1.5
2017-May-19 19:00N 58°16' E 010°42'612.3
2017-May-19 18:30N 58°17' E 010°31'0 0.2
2017-May-19 17:47N 58°17' E 010°30'0 0.0
2017-May-19 17:30N 58°17' E 010°30'0 0.1
2017-May-19 17:00N 58°17' E 010°30'510.8
2017-May-19 16:30N 58°13' E 010°38'612.2
2017-May-19 15:59N 58°09' E 010°46'611.8
2017-May-19 15:30N 58°05' E 010°54'612.2
2017-May-19 14:59N 58°00' E 011°02'1211.8
2017-May-19 14:00N 57°52' E 011°18'0 0.0
2017-May-19 13:30N 57°52' E 011°18'3 5.4
2017-May-19 13:00N 57°49' E 011°19'612.5
2017-May-19 12:30N 57°43' E 011°21'612.2
2017-May-19 12:00N 57°37' E 011°24'611.9
2017-May-19 11:28N 57°31' E 011°27'512.1
2017-May-19 11:00N 57°26' E 011°29'612.5
2017-May-19 10:30N 57°20' E 011°33'612.5
2017-May-19 10:00N 57°14' E 011°38'3 5.6
2017-May-19 09:30N 57°12' E 011°39'0 0.0
2017-May-19 09:00N 57°12' E 011°39'4 8.0
2017-May-19 08:28N 57°07' E 011°42'1012.6
2017-May-19 07:41N 57°02' E 011°57'212.5
2017-May-19 07:30N 57°01' E 012°01'8 6.3
2017-May-19 06:15N 56°56' E 012°13'0 0.3
2017-May-19 05:41N 56°56' E 012°13'511.1
2017-May-19 05:13N 56°51' E 012°11'312.4
2017-May-19 05:00N 56°49' E 012°10'39 8.6
2017-May-19 00:25N 56°11' E 012°30'512.4
2017-May-19 00:00N 56°06' E 012°34'611.6
2017-May-18 23:31N 56°02' E 012°40'611.2
2017-May-18 23:01N 55°56' E 012°43'4 8.6
2017-May-18 22:30N 55°52' E 012°45'0 0.0
2017-May-18 22:00N 55°52' E 012°45'2 3.7
2017-May-18 21:30N 55°50' E 012°44'611.1
2017-May-18 21:00N 55°45' E 012°42'612.2
2017-May-18 20:30N 55°39' E 012°42'510.5
2017-May-18 20:01N 55°33' E 012°42'611.8
2017-May-18 19:30N 55°28' E 012°42'612.3
2017-May-18 19:00N 55°21' E 012°41'510.8
2017-May-18 18:30N 55°17' E 012°47'612.6
2017-May-18 18:00N 55°15' E 012°57'612.5
2017-May-18 17:30N 55°10' E 013°04'1212.3
2017-May-18 16:32N 55°01' E 013°18'0 1.4
2017-May-18 16:30N 55°01' E 013°18'0 0.0
2017-May-18 16:00N 55°01' E 013°18'2110.1
2017-May-18 13:58N 55°00' E 013°54'612.8
2017-May-18 13:29N 54°59' E 014°04'1 2.1
2017-May-18 12:59N 54°58' E 014°06'0 0.0
2017-May-18 12:30N 54°58' E 014°06'0 0.0
2017-May-18 12:00N 54°58' E 014°06'5 9.8
2017-May-18 11:31N 55°01' E 014°13'612.2
2017-May-18 11:00N 55°07' E 014°17'612.1
2017-May-18 10:30N 55°13' E 014°19'612.1
2017-May-18 10:00N 55°18' E 014°24'712.7
2017-May-18 09:29N 55°23' E 014°31'712.7
2017-May-18 08:56N 55°29' E 014°39'512.6
2017-May-18 08:30N 55°33' E 014°45'611.8
2017-May-18 08:00N 55°37' E 014°52'0 0.0
2017-May-18 07:30N 55°37' E 014°52'2 3.2
2017-May-18 06:59N 55°38' E 014°55'712.4
2017-May-18 06:25N 55°41' E 015°05'512.5
2017-May-18 06:00N 55°44' E 015°13'612.4
2017-May-18 05:30N 55°47' E 015°23'612.5
2017-May-18 05:01N 55°51' E 015°32'612.4
2017-May-18 04:31N 55°54' E 015°42'612.5
2017-May-18 04:01N 55°58' E 015°50'612.4
2017-May-18 03:30N 56°02' E 015°58'612.2
2017-May-18 03:00N 56°07' E 016°04'612.3
2017-May-18 02:30N 56°13' E 016°07'612.5
2017-May-18 02:00N 56°19' E 016°10'3 6.9
2017-May-18 01:30N 56°22' E 016°12'0 0.0
2017-May-18 01:00N 56°22' E 016°12'0 0.2
2017-May-18 00:30N 56°22' E 016°12'611.3
2017-May-18 00:01N 56°17' E 016°15'612.5
2017-May-17 23:30N 56°11' E 016°18'611.6
2017-May-17 23:01N 56°06' E 016°23'611.9
2017-May-17 22:31N 56°08' E 016°33'4 7.9
2017-May-17 22:00N 56°10' E 016°39'611.2
2017-May-17 21:30N 56°15' E 016°44'1112.3
2017-May-17 20:38N 56°24' E 016°54'212.5
2017-May-17 20:30N 56°26' E 016°56'  
Track history (hours):
 
Tides and Currents Weather Stations Pressure Air Temp Water Temp Dewpoint Dewpoint Depression Visibility Wind Speed Wind Dir Waves Ship Positions

Oceanographic research ship Aranda (Finland)

Detailed information on ship capabilities available from University of Delaware's Ocean Information Center and ARCUS's ALIAS (Arctic Logistics Information and Support) project.

Last reported at 2017-May-27 14:24 UTC. Time now 2017-May-27 17:37 UTC.
Position N 59°53' E 024°56'.

Length 60 m; draft 4.7 m.

Type: Other ship. MMSI: 230145000.

Date/timePositionNaut miles runAvg speedWind from/ knotsBaromVisibWave heightAir tempDewpointWater temp
2017-May-27 14:24N 59°53' E 024°56'28 4.1
2017-May-27 07:38N 59°42' E 024°05'1 6.8
2017-May-27 07:28N 59°42' E 024°03'  
2017-May-23 03:50N 59°57' E 024°26'412.3
2017-May-23 03:30N 59°56' E 024°18'611.6
2017-May-23 03:00N 59°52' E 024°10'612.4
2017-May-23 02:30N 59°47' E 024°03'612.7
2017-May-23 02:00N 59°44' E 023°51'612.5
2017-May-23 01:30N 59°42' E 023°40'612.6
2017-May-23 01:00N 59°39' E 023°29'612.7
2017-May-23 00:30N 59°35' E 023°18'612.8
2017-May-23 00:00N 59°33' E 023°07'613.0
2017-May-22 23:30N 59°30' E 022°56'261 9.0
2017-May-21 18:20N 55°55' E 018°18'5512.7
2017-May-21 13:59N 55°33' E 016°48'1112.6
2017-May-21 13:07N 55°27' E 016°31'212.5
2017-May-21 12:58N 55°26' E 016°29'1812.5
2017-May-21 11:33N 55°16' E 016°03'112.5
2017-May-21 11:28N 55°16' E 016°01'1 1.0
2017-May-21 10:02N 55°15' E 015°59'0 0.2
2017-May-21 09:49N 55°15' E 015°59'411.0
2017-May-21 09:25N 55°16' E 015°52'612.8
2017-May-21 08:55N 55°19' E 015°41'1312.3
2017-May-21 07:52N 55°23' E 015°20'0 0.1
2017-May-21 07:30N 55°23' E 015°20'0 0.0
2017-May-21 07:00N 55°23' E 015°20'4 8.3
2017-May-21 06:30N 55°23' E 015°13'712.6
2017-May-21 05:59N 55°23' E 015°01'612.7
2017-May-21 05:30N 55°23' E 014°50'712.6
2017-May-21 04:58N 55°22' E 014°39'612.3
2017-May-21 04:30N 55°18' E 014°32'612.6
2017-May-21 04:00N 55°13' E 014°24'612.3
2017-May-21 03:29N 55°11' E 014°13'612.6
2017-May-21 02:59N 55°11' E 014°03'612.9
2017-May-21 02:30N 55°11' E 013°52'612.6
2017-May-21 02:00N 55°11' E 013°41'712.6
2017-May-21 01:28N 55°11' E 013°29'712.7
2017-May-21 00:57N 55°12' E 013°17'612.5
2017-May-21 00:30N 55°13' E 013°08'612.5
2017-May-21 00:00N 55°14' E 012°57'612.4
2017-May-20 23:29N 55°16' E 012°46'510.7
2017-May-20 23:00N 55°19' E 012°39'510.3
2017-May-20 22:30N 55°24' E 012°40'5 9.4
2017-May-20 22:00N 55°28' E 012°41'510.5
2017-May-20 21:30N 55°33' E 012°42'510.1
2017-May-20 21:00N 55°38' E 012°42'612.5
2017-May-20 20:30N 55°45' E 012°41'612.4
2017-May-20 20:00N 55°51' E 012°41'713.1
2017-May-20 19:30N 55°57' E 012°38'612.8
2017-May-20 19:00N 56°04' E 012°38'713.6
2017-May-20 18:31N 56°08' E 012°29'6410.3
2017-May-20 12:15N 57°10' E 011°54'313.3
2017-May-20 12:00N 57°13' E 011°53'713.3
2017-May-20 11:30N 57°19' E 011°46'713.1
2017-May-20 11:00N 57°24' E 011°39'613.2
2017-May-20 10:31N 57°30' E 011°32'712.8
2017-May-20 10:00N 57°35' E 011°25'612.1
2017-May-20 09:30N 57°41' E 011°23'612.0
2017-May-20 09:00N 57°47' E 011°22'611.5
2017-May-20 08:30N 57°53' E 011°20'611.3
2017-May-20 08:00N 57°58' E 011°19'611.3
2017-May-20 07:30N 58°04' E 011°18'611.1
2017-May-20 07:00N 58°09' E 011°20'8 7.0
2017-May-20 05:52N 58°16' E 011°28'0 0.0
2017-May-20 05:25N 58°16' E 011°28'0 0.0
2017-May-20 04:39N 58°16' E 011°28'0 0.0
2017-May-20 04:26N 58°16' E 011°28'0 0.0
2017-May-20 02:12N 58°16' E 011°28'1 0.9
2017-May-20 00:42N 58°16' E 011°25'212.2
2017-May-20 00:30N 58°16' E 011°21'612.3
2017-May-20 00:00N 58°18' E 011°10'5 3.7
2017-May-19 22:42N 58°20' E 011°02'0 1.6
2017-May-19 22:29N 58°20' E 011°01'3 3.6
2017-May-19 21:45N 58°19' E 010°56'2 4.9
2017-May-19 21:19N 58°18' E 010°53'1 1.8
2017-May-19 20:41N 58°18' E 010°51'0 0.0
2017-May-19 20:30N 58°18' E 010°51'2 3.5
2017-May-19 19:51N 58°17' E 010°47'2 5.3
2017-May-19 19:30N 58°16' E 010°43'1 1.5
2017-May-19 19:00N 58°16' E 010°42'612.3
2017-May-19 18:30N 58°17' E 010°31'0 0.2
2017-May-19 17:47N 58°17' E 010°30'0 0.0
2017-May-19 17:30N 58°17' E 010°30'0 0.1
2017-May-19 17:00N 58°17' E 010°30'510.8
2017-May-19 16:30N 58°13' E 010°38'612.2
2017-May-19 15:59N 58°09' E 010°46'611.8
2017-May-19 15:30N 58°05' E 010°54'612.2
2017-May-19 14:59N 58°00' E 011°02'1211.8
2017-May-19 14:00N 57°52' E 011°18'0 0.0
2017-May-19 13:30N 57°52' E 011°18'3 5.4
2017-May-19 13:00N 57°49' E 011°19'612.5
2017-May-19 12:30N 57°43' E 011°21'612.2
2017-May-19 12:00N 57°37' E 011°24'611.9
2017-May-19 11:28N 57°31' E 011°27'512.1
2017-May-19 11:00N 57°26' E 011°29'612.5
2017-May-19 10:30N 57°20' E 011°33'612.5
2017-May-19 10:00N 57°14' E 011°38'3 5.6
2017-May-19 09:30N 57°12' E 011°39'0 0.0
2017-May-19 09:00N 57°12' E 011°39'4 8.0
2017-May-19 08:28N 57°07' E 011°42'1012.6
2017-May-19 07:41N 57°02' E 011°57'212.5
2017-May-19 07:30N 57°01' E 012°01'8 6.3
2017-May-19 06:15N 56°56' E 012°13'0 0.3
2017-May-19 05:41N 56°56' E 012°13'511.1
2017-May-19 05:13N 56°51' E 012°11'312.4
2017-May-19 05:00N 56°49' E 012°10'39 8.6
2017-May-19 00:25N 56°11' E 012°30'512.4
2017-May-19 00:00N 56°06' E 012°34'611.6
2017-May-18 23:31N 56°02' E 012°40'611.2
2017-May-18 23:01N 55°56' E 012°43'4 8.6
2017-May-18 22:30N 55°52' E 012°45'0 0.0
2017-May-18 22:00N 55°52' E 012°45'2 3.7
2017-May-18 21:30N 55°50' E 012°44'611.1
2017-May-18 21:00N 55°45' E 012°42'612.2
2017-May-18 20:30N 55°39' E 012°42'510.5
2017-May-18 20:01N 55°33' E 012°42'611.8
2017-May-18 19:30N 55°28' E 012°42'612.3
2017-May-18 19:00N 55°21' E 012°41'510.8
2017-May-18 18:30N 55°17' E 012°47'612.6
2017-May-18 18:00N 55°15' E 012°57'612.5
2017-May-18 17:30N 55°10' E 013°04'1212.3
2017-May-18 16:32N 55°01' E 013°18'0 1.4
2017-May-18 16:30N 55°01' E 013°18'0 0.0
2017-May-18 16:00N 55°01' E 013°18'2110.1
2017-May-18 13:58N 55°00' E 013°54'612.8
2017-May-18 13:29N 54°59' E 014°04'1 2.1
2017-May-18 12:59N 54°58' E 014°06'0 0.0
2017-May-18 12:30N 54°58' E 014°06'0 0.0
2017-May-18 12:00N 54°58' E 014°06'5 9.8
2017-May-18 11:31N 55°01' E 014°13'612.2
2017-May-18 11:00N 55°07' E 014°17'612.1
2017-May-18 10:30N 55°13' E 014°19'612.1
2017-May-18 10:00N 55°18' E 014°24'712.7
2017-May-18 09:29N 55°23' E 014°31'712.7
2017-May-18 08:56N 55°29' E 014°39'512.6
2017-May-18 08:30N 55°33' E 014°45'611.8
2017-May-18 08:00N 55°37' E 014°52'0 0.0
2017-May-18 07:30N 55°37' E 014°52'2 3.2
2017-May-18 06:59N 55°38' E 014°55'712.4
2017-May-18 06:25N 55°41' E 015°05'512.5
2017-May-18 06:00N 55°44' E 015°13'612.4
2017-May-18 05:30N 55°47' E 015°23'612.5
2017-May-18 05:01N 55°51' E 015°32'612.4
2017-May-18 04:31N 55°54' E 015°42'612.5
2017-May-18 04:01N 55°58' E 015°50'612.4
2017-May-18 03:30N 56°02' E 015°58'612.2
2017-May-18 03:00N 56°07' E 016°04'612.3
2017-May-18 02:30N 56°13' E 016°07'612.5
2017-May-18 02:00N 56°19' E 016°10'3 6.9
2017-May-18 01:30N 56°22' E 016°12'0 0.0
2017-May-18 01:00N 56°22' E 016°12'0 0.2
2017-May-18 00:30N 56°22' E 016°12'611.3
2017-May-18 00:01N 56°17' E 016°15'612.5
2017-May-17 23:30N 56°11' E 016°18'611.6
2017-May-17 23:01N 56°06' E 016°23'611.9
2017-May-17 22:31N 56°08' E 016°33'4 7.9
2017-May-17 22:00N 56°10' E 016°39'611.2
2017-May-17 21:30N 56°15' E 016°44'1112.3
2017-May-17 20:38N 56°24' E 016°54'212.5
2017-May-17 20:30N 56°26' E 016°56'  

Dump ship's entire track history